createdAt,value
2019-02-28T00:01:49.829Z,13.00
2019-02-28T00:04:16.948Z,13.37
2019-02-28T00:06:45.096Z,13.80
2019-02-28T00:09:13.008Z,13.97
2019-02-28T00:11:40.239Z,13.20
2019-02-28T00:14:07.363Z,12.40
2019-02-28T00:16:54.250Z,12.40
2019-02-28T00:19:23.948Z,12.33
2019-02-28T00:21:50.449Z,13.20
2019-02-28T00:24:17.468Z,12.20
2019-02-28T00:26:47.564Z,11.67
2019-02-28T00:29:13.648Z,12.43
2019-02-28T00:31:40.770Z,11.73
2019-02-28T00:34:07.808Z,12.10
2019-02-28T00:36:34.988Z,12.87
2019-02-28T00:39:04.014Z,12.93
2019-02-28T00:41:31.588Z,12.20
2019-02-28T00:43:58.710Z,12.07
2019-02-28T00:46:25.929Z,11.50
2019-02-28T00:48:54.145Z,12.27
2019-02-28T00:51:21.368Z,11.30
2019-02-28T00:53:48.569Z,12.40
2019-02-28T00:56:17.528Z,11.37
2019-02-28T00:58:44.609Z,11.30
2019-02-28T01:01:12.623Z,11.77
2019-02-28T01:03:40.148Z,11.90
2019-02-28T01:06:10.556Z,11.87
2019-02-28T01:08:36.288Z,11.33
2019-02-28T01:11:03.572Z,11.57
2019-02-28T01:13:30.689Z,11.63
2019-02-28T01:15:57.808Z,13.13
2019-02-28T01:18:24.908Z,13.13
2019-02-28T01:20:52.068Z,12.40
2019-02-28T01:23:19.610Z,12.97
2019-02-28T01:25:46.708Z,11.83
2019-02-28T01:28:13.828Z,12.80
2019-02-28T01:30:41.246Z,13.50
2019-02-28T01:33:08.549Z,12.80
2019-02-28T01:35:37.528Z,12.47
2019-02-28T01:38:04.569Z,12.70
2019-02-28T01:40:31.689Z,12.17
2019-02-28T01:42:58.769Z,12.70
2019-02-28T01:45:25.908Z,13.03
2019-02-28T01:47:53.028Z,12.40
2019-02-28T01:50:20.249Z,12.73
2019-02-28T01:52:47.328Z,13.20
2019-02-28T01:55:14.471Z,11.77
2019-02-28T01:57:43.740Z,12.87
2019-02-28T02:00:16.728Z,11.87
2019-02-28T02:02:43.773Z,12.23
2019-02-28T02:05:11.009Z,13.33
2019-02-28T02:07:38.269Z,12.37
2019-02-28T02:10:12.390Z,12.23
2019-02-28T02:12:39.568Z,12.87
2019-02-28T02:15:10.149Z,12.17
2019-02-28T02:17:37.427Z,11.83
2019-02-28T02:20:08.949Z,11.97
2019-02-28T02:22:36.031Z,11.77
2019-02-28T02:25:05.181Z,11.97
2019-02-28T02:27:32.288Z,11.47
2019-02-28T02:29:59.428Z,11.93
2019-02-28T02:32:26.530Z,11.63
2019-02-28T02:34:53.929Z,11.43
2019-02-28T02:37:21.054Z,11.63
2019-02-28T02:39:50.161Z,11.90
2019-02-28T02:42:17.189Z,11.97
2019-02-28T02:44:44.332Z,12.63
2019-02-28T02:47:11.510Z,11.83
2019-02-28T02:49:38.613Z,12.20
2019-02-28T02:52:05.698Z,10.37
2019-02-28T02:54:32.790Z,14.63
2019-02-28T02:56:59.937Z,12.87
2019-02-28T02:59:27.067Z,12.57
2019-02-28T03:01:56.253Z,12.13
2019-02-28T03:04:23.545Z,12.00
2019-02-28T03:06:50.780Z,12.73
2019-02-28T03:09:17.866Z,12.90
2019-02-28T03:11:44.969Z,12.27
2019-02-28T03:14:16.433Z,12.80
2019-02-28T03:16:41.111Z,13.00
2019-02-28T03:19:08.256Z,11.63
2019-02-28T03:21:35.593Z,12.17
2019-02-28T03:24:02.860Z,12.77
2019-02-28T03:26:29.930Z,12.43
2019-02-28T03:28:57.028Z,14.37
2019-02-28T03:31:24.119Z,13.47
2019-02-28T03:33:51.350Z,12.37
2019-02-28T03:36:18.435Z,11.70
2019-02-28T03:38:49.658Z,11.93
2019-02-28T03:41:17.843Z,12.13
2019-02-28T03:43:44.199Z,12.27
2019-02-28T03:46:11.650Z,12.00
2019-02-28T03:48:38.891Z,11.40
2019-02-28T03:51:05.994Z,11.67
2019-02-28T03:53:33.112Z,11.90
2019-02-28T03:56:00.216Z,10.93
2019-02-28T03:58:27.409Z,11.63
2019-02-28T04:00:54.470Z,11.17
2019-02-28T04:03:21.659Z,11.10
2019-02-28T04:05:48.786Z,11.67
2019-02-28T04:08:16.067Z,11.10
2019-02-28T04:10:43.158Z,11.63
2019-02-28T04:13:10.370Z,12.60
2019-02-28T04:15:37.412Z,12.20
2019-02-28T04:18:07.710Z,11.80
2019-02-28T04:20:37.405Z,12.33
2019-02-28T04:23:02.662Z,11.67
2019-02-28T04:25:29.736Z,11.97
2019-02-28T04:27:56.776Z,11.53
2019-02-28T04:30:23.868Z,11.70
2019-02-28T04:32:50.969Z,12.50
2019-02-28T04:35:24.341Z,13.40
2019-02-28T04:37:47.348Z,13.17
2019-02-28T04:40:14.687Z,12.13
2019-02-28T04:42:41.784Z,12.83
2019-02-28T04:45:12.148Z,13.53
2019-02-28T04:47:40.444Z,13.07
2019-02-28T04:50:10.186Z,12.60
2019-02-28T04:52:37.268Z,12.77
2019-02-28T04:55:06.271Z,13.53
2019-02-28T04:57:33.467Z,12.30
2019-02-28T05:00:00.629Z,12.33
2019-02-28T05:02:27.668Z,12.80
2019-02-28T05:04:54.788Z,11.23
2019-02-28T05:07:21.988Z,11.93
2019-02-28T05:09:49.095Z,11.80
2019-02-28T05:12:16.208Z,11.80
2019-02-28T05:14:43.288Z,10.63
2019-02-28T05:17:10.467Z,10.77
2019-02-28T05:19:37.588Z,11.77
2019-02-28T05:22:04.745Z,11.07
2019-02-28T05:24:31.868Z,11.37
2019-02-28T05:27:00.313Z,11.40
2019-02-28T05:29:27.948Z,11.77
2019-02-28T05:31:55.089Z,12.20
2019-02-28T05:34:22.208Z,11.63
2019-02-28T05:36:49.309Z,11.20
2019-02-28T05:39:16.583Z,12.07
2019-02-28T05:41:49.117Z,12.63
2019-02-28T05:44:13.190Z,11.30
2019-02-28T05:46:40.285Z,11.77
2019-02-28T05:49:08.712Z,11.90
2019-02-28T05:51:36.107Z,12.33
2019-02-28T05:54:03.271Z,12.53
2019-02-28T05:56:33.235Z,12.90
2019-02-28T05:58:59.447Z,13.47
2019-02-28T06:01:26.548Z,13.97
2019-02-28T06:03:53.727Z,13.13
2019-02-28T06:06:20.953Z,13.20
2019-02-28T06:08:48.248Z,12.47
2019-02-28T06:11:15.448Z,12.73
2019-02-28T06:13:42.656Z,13.40
2019-02-28T06:16:12.364Z,12.70
2019-02-28T06:18:38.767Z,12.73
2019-02-28T06:21:05.868Z,12.57
2019-02-28T06:23:33.029Z,12.40
2019-02-28T06:26:00.780Z,12.07
2019-02-28T06:28:30.972Z,12.57
2019-02-28T06:30:57.427Z,11.83
2019-02-28T06:33:24.627Z,12.67
2019-02-28T06:35:53.673Z,12.17
2019-02-28T06:38:20.868Z,11.80
2019-02-28T06:40:47.928Z,11.57
2019-02-28T06:43:15.090Z,11.27
2019-02-28T06:45:42.303Z,12.13
2019-02-28T06:48:09.528Z,11.03
2019-02-28T06:50:36.608Z,11.50
2019-02-28T06:53:03.707Z,11.30
2019-02-28T06:55:30.869Z,11.20
2019-02-28T06:57:58.899Z,11.53
2019-02-28T07:00:27.007Z,12.97
2019-02-28T07:02:54.128Z,12.60
2019-02-28T07:05:24.787Z,11.13
2019-02-28T07:07:50.412Z,11.63
2019-02-28T07:10:17.549Z,11.93
2019-02-28T07:12:49.470Z,11.83
2019-02-28T07:15:16.640Z,12.10
2019-02-28T07:17:46.303Z,11.37
2019-02-28T07:20:18.533Z,11.13
2019-02-28T07:22:45.960Z,11.57
2019-02-28T07:25:13.880Z,12.43
2019-02-28T07:27:41.400Z,13.10
2019-02-28T07:30:18.558Z,13.77
2019-02-28T07:32:45.320Z,13.80
2019-02-28T07:35:12.494Z,12.67
2019-02-28T07:37:39.574Z,12.43
2019-02-28T07:40:17.064Z,12.40
2019-02-28T07:42:44.573Z,11.63
2019-02-28T07:45:13.754Z,11.73
2019-02-28T07:47:40.834Z,10.77
2019-02-28T07:50:14.416Z,11.40
2019-02-28T07:52:41.634Z,11.97
2019-02-28T07:55:14.536Z,11.03
2019-02-28T07:57:41.682Z,10.73
2019-02-28T08:00:30.454Z,11.43
2019-02-28T08:02:57.493Z,10.17
2019-02-28T08:05:29.650Z,10.17
2019-02-28T08:07:53.741Z,11.23
2019-02-28T08:10:26.940Z,10.60
2019-02-28T08:12:54.053Z,10.63
2019-02-28T08:15:25.534Z,10.37
2019-02-28T08:17:52.708Z,10.73
2019-02-28T08:20:20.334Z,10.00
2019-02-28T08:22:47.514Z,10.03
2019-02-28T08:25:15.299Z,10.73
2019-02-28T08:27:42.453Z,9.47
2019-02-28T08:30:31.654Z,9.33
2019-02-28T08:32:58.734Z,9.13
2019-02-28T08:35:25.833Z,8.27
2019-02-28T08:37:56.932Z,8.83
2019-02-28T08:40:27.171Z,7.70
2019-02-28T08:42:54.673Z,7.17
2019-02-28T08:45:21.937Z,6.60
2019-02-28T08:47:49.036Z,5.43
2019-02-28T08:50:23.599Z,6.27
2019-02-28T08:53:02.697Z,5.57
2019-02-28T08:55:29.795Z,6.17
2019-02-28T08:58:03.987Z,6.50
2019-02-28T09:00:31.282Z,5.90
2019-02-28T09:02:55.215Z,5.60
2019-02-28T09:05:26.109Z,6.03
2019-02-28T09:07:52.196Z,6.17
2019-02-28T09:10:22.096Z,5.97
2019-02-28T09:12:49.173Z,6.13
2019-02-28T09:15:18.014Z,6.20
2019-02-28T09:17:46.014Z,6.70
2019-02-28T09:20:14.933Z,7.47
2019-02-28T09:22:42.053Z,6.20
2019-02-28T09:25:22.943Z,5.83
2019-02-28T09:27:50.513Z,6.70
2019-02-28T09:30:41.680Z,6.73
2019-02-28T09:33:08.799Z,6.00
2019-02-28T09:35:36.034Z,6.87
2019-02-28T09:38:08.038Z,6.80
2019-02-28T09:40:32.774Z,7.00
2019-02-28T09:42:59.934Z,6.80
2019-02-28T09:45:32.074Z,7.00
2019-02-28T09:48:01.973Z,6.87
2019-02-28T09:50:28.154Z,6.80
2019-02-28T09:52:55.630Z,7.37
2019-02-28T09:55:22.814Z,6.83
2019-02-28T09:57:53.841Z,7.20
2019-02-28T10:00:21.035Z,7.93
2019-02-28T10:02:48.182Z,7.40
2019-02-28T10:05:15.536Z,7.37
2019-02-28T10:07:42.754Z,6.97
2019-02-28T10:10:23.268Z,7.37
2019-02-28T10:12:50.497Z,7.20
2019-02-28T10:15:21.855Z,7.40
2019-02-28T10:17:49.094Z,7.17
2019-02-28T10:20:40.274Z,7.43
2019-02-28T10:23:07.377Z,7.37
2019-02-28T10:25:40.974Z,7.57
2019-02-28T10:28:03.855Z,7.83
2019-02-28T10:30:32.439Z,6.97
2019-02-28T10:32:59.895Z,7.30
2019-02-28T10:35:26.934Z,8.23
2019-02-28T10:37:56.994Z,8.00
2019-02-28T10:40:31.155Z,8.30
2019-02-28T10:42:58.354Z,7.30
2019-02-28T10:45:26.055Z,7.67
2019-02-28T10:47:53.274Z,7.80
2019-02-28T10:50:33.336Z,7.93
2019-02-28T10:53:04.037Z,8.10
2019-02-28T10:55:28.435Z,7.17
2019-02-28T10:57:55.955Z,7.93
2019-02-28T11:00:33.716Z,8.23
2019-02-28T11:03:01.664Z,8.07
2019-02-28T11:05:31.184Z,7.80
2019-02-28T11:07:58.801Z,8.30
2019-02-28T11:10:34.995Z,8.30
2019-02-28T11:13:00.256Z,7.87
2019-02-28T11:15:27.961Z,8.07
2019-02-28T11:17:55.057Z,8.37
2019-02-28T11:20:25.450Z,8.33
2019-02-28T11:22:51.636Z,8.30
2019-02-28T11:25:21.742Z,8.67
2019-02-28T11:27:48.899Z,8.33
2019-02-28T11:30:23.612Z,8.73
2019-02-28T11:32:50.769Z,8.83
2019-02-28T11:35:20.101Z,8.90
2019-02-28T11:37:47.031Z,9.00
2019-02-28T11:40:21.750Z,9.10
2019-02-28T11:42:48.970Z,8.73
2019-02-28T11:45:25.501Z,8.83
2019-02-28T11:47:55.550Z,8.93
2019-02-28T11:50:22.670Z,9.80
2019-02-28T11:52:49.803Z,9.40
2019-02-28T11:55:20.313Z,10.13
2019-02-28T11:57:46.291Z,9.70
2019-02-28T12:00:21.482Z,10.23
2019-02-28T12:02:53.339Z,9.60
2019-02-28T12:05:17.626Z,10.40
2019-02-28T12:07:44.722Z,9.83
2019-02-28T12:10:12.282Z,9.97
2019-02-28T12:12:41.557Z,9.50
2019-02-28T12:15:19.322Z,10.13
2019-02-28T12:17:46.425Z,10.93
2019-02-28T12:20:14.584Z,10.33
2019-02-28T12:22:43.615Z,10.00
2019-02-28T12:25:39.549Z,9.43
2019-02-28T12:28:06.725Z,10.63
2019-02-28T12:30:34.942Z,10.57
2019-02-28T12:33:02.111Z,11.10
2019-02-28T12:35:49.061Z,11.30
2019-02-28T12:38:16.144Z,10.90
2019-02-28T12:40:45.749Z,10.80
2019-02-28T12:43:13.562Z,10.90
2019-02-28T12:45:46.424Z,10.60
2019-02-28T12:48:13.701Z,10.70
2019-02-28T12:50:41.884Z,11.63
2019-02-28T12:53:09.003Z,11.23
2019-02-28T12:58:36.558Z,10.83
2019-02-28T13:01:00.100Z,10.93
2019-02-28T13:03:26.467Z,11.33
2019-02-28T13:05:53.769Z,10.30
2019-02-28T13:08:20.905Z,10.83
2019-02-28T13:10:48.194Z,11.20
2019-02-28T13:13:15.563Z,12.00
2019-02-28T13:15:45.572Z,10.87
2019-02-28T13:18:12.125Z,10.70
2019-02-28T13:20:39.802Z,11.47
2019-02-28T13:23:07.124Z,11.17
2019-02-28T13:25:34.273Z,10.47
2019-02-28T13:28:01.451Z,11.17
2019-02-28T13:30:28.612Z,10.67
2019-02-28T13:32:55.665Z,11.80
2019-02-28T13:35:30.404Z,10.97
2019-02-28T13:37:57.664Z,11.57
2019-02-28T13:40:24.842Z,11.13
2019-02-28T13:42:52.088Z,10.57
2019-02-28T13:45:23.120Z,10.40
2019-02-28T13:47:50.022Z,10.50
2019-02-28T13:50:41.704Z,10.50
2019-02-28T13:53:17.301Z,10.73
2019-02-28T13:55:38.561Z,10.47
2019-02-28T13:58:05.799Z,10.70
2019-02-28T14:00:35.134Z,10.27
2019-02-28T14:03:10.358Z,10.60
2019-02-28T14:05:40.656Z,11.20
2019-02-28T14:08:11.214Z,10.57
2019-02-28T14:10:36.116Z,10.63
2019-02-28T14:13:03.341Z,12.00
2019-02-28T14:15:41.290Z,11.30
2019-02-28T14:18:10.852Z,10.90
2019-02-28T14:20:37.446Z,12.30
2019-02-28T14:23:04.603Z,10.70
2019-02-28T14:25:31.725Z,12.10
2019-02-28T14:28:00.279Z,11.80
2019-02-28T14:30:28.048Z,11.37
2019-02-28T14:32:55.385Z,12.43
2019-02-28T14:35:26.530Z,12.13
2019-02-28T14:37:55.885Z,12.67
2019-02-28T14:40:23.630Z,12.40
2019-02-28T14:42:50.872Z,12.90
2019-02-28T14:45:22.116Z,12.47
2019-02-28T14:47:56.904Z,11.87
2019-02-28T14:50:20.309Z,12.10
2019-02-28T14:52:50.240Z,11.13
2019-02-28T14:55:21.646Z,11.50
2019-02-28T14:57:49.513Z,11.10
2019-02-28T15:00:30.089Z,11.53
2019-02-28T15:03:02.832Z,11.10
2019-02-28T15:05:36.563Z,10.73
2019-02-28T15:08:04.022Z,10.87
2019-02-28T15:10:34.207Z,11.07
2019-02-28T15:13:00.825Z,10.20
2019-02-28T15:15:27.950Z,10.67
2019-02-28T15:17:55.168Z,10.77
2019-02-28T15:20:22.275Z,10.47
2019-02-28T15:22:52.515Z,10.37
2019-02-28T15:25:28.469Z,9.80
2019-02-28T15:27:57.319Z,9.93
2019-02-28T15:30:35.547Z,9.90
2019-02-28T15:33:02.693Z,9.77
2019-02-28T15:35:30.001Z,8.90
2019-02-28T15:37:57.334Z,9.40
2019-02-28T15:40:34.842Z,9.57
2019-02-28T15:43:01.936Z,9.43
2019-02-28T15:45:28.994Z,9.17
2019-02-28T15:47:58.992Z,8.37
2019-02-28T15:50:25.501Z,9.60
2019-02-28T15:52:53.042Z,8.30
2019-02-28T15:55:21.401Z,8.17
2019-02-28T15:57:48.442Z,7.67
2019-02-28T16:00:22.034Z,8.03
2019-02-28T16:02:49.041Z,8.40
2019-02-28T16:05:16.386Z,8.17
2019-02-28T16:07:43.941Z,8.40
2019-02-28T16:10:18.580Z,8.30
2019-02-28T16:12:46.531Z,7.87
2019-02-28T16:15:15.047Z,7.90
2019-02-28T16:17:42.196Z,8.03
2019-02-28T16:20:12.316Z,7.67
2019-02-28T16:22:39.457Z,7.73
2019-02-28T16:25:14.784Z,7.87
2019-02-28T16:27:42.892Z,7.20
2019-02-28T16:30:16.653Z,7.00
2019-02-28T16:32:45.614Z,7.77
2019-02-28T16:35:14.572Z,7.70
2019-02-28T16:37:42.098Z,7.43
2019-02-28T16:40:27.023Z,7.97
2019-02-28T16:42:54.356Z,8.07
2019-02-28T16:45:27.317Z,7.90
2019-02-28T16:47:55.620Z,7.43
2019-02-28T16:50:23.493Z,8.27
2019-02-28T16:52:50.784Z,8.33
2019-02-28T16:55:17.983Z,8.23
2019-02-28T16:57:47.046Z,8.67
2019-02-28T17:00:16.146Z,8.50
2019-02-28T17:02:43.363Z,8.60
2019-02-28T17:05:11.006Z,8.13
2019-02-28T17:07:40.450Z,8.53
2019-02-28T17:10:24.664Z,9.30
2019-02-28T17:13:10.004Z,8.97
2019-02-28T17:15:41.902Z,9.50
2019-02-28T17:18:10.767Z,9.17
2019-02-28T17:20:40.671Z,9.00
2019-02-28T17:23:07.083Z,10.40
2019-02-28T17:25:34.484Z,10.83
2019-02-28T17:28:06.102Z,11.57
2019-02-28T17:30:36.304Z,15.37
2019-02-28T17:33:05.801Z,11.30
2019-02-28T17:35:33.874Z,10.67
2019-02-28T17:38:02.089Z,12.30
2019-02-28T17:40:29.367Z,11.07
2019-02-28T17:42:56.543Z,10.50
2019-02-28T17:45:24.743Z,10.13
2019-02-28T17:48:34.845Z,9.93
2019-02-28T17:51:15.022Z,10.07
2019-02-28T17:53:50.882Z,9.67
2019-02-28T17:56:50.383Z,10.33
2019-02-28T17:59:43.923Z,15.83
2019-02-28T18:02:38.158Z,10.70
2019-02-28T18:05:37.844Z,11.17
2019-02-28T18:08:37.534Z,10.77
2019-02-28T18:11:19.702Z,10.17
2019-02-28T18:14:07.603Z,9.53
2019-02-28T18:16:47.235Z,10.67
2019-02-28T18:19:59.223Z,11.13
2019-02-28T18:22:55.443Z,10.93
2019-02-28T18:28:46.503Z,12.33
2019-02-28T18:31:14.964Z,13.07
2019-02-28T18:33:49.546Z,10.53
2019-02-28T18:36:20.962Z,11.70
2019-02-28T18:38:48.142Z,11.53
2019-02-28T18:41:15.642Z,10.73
2019-02-28T18:43:42.763Z,12.20
2019-02-28T18:46:09.843Z,11.20
2019-02-28T18:48:37.003Z,11.20
2019-02-28T18:51:23.863Z,11.10
2019-02-28T18:53:50.962Z,21.70
2019-02-28T18:56:18.202Z,18.27
2019-02-28T18:58:45.363Z,12.70
2019-02-28T19:01:12.874Z,11.13
2019-02-28T19:03:40.055Z,11.17
2019-02-28T19:06:07.189Z,11.43
2019-02-28T19:08:34.205Z,11.77
2019-02-28T19:11:01.355Z,12.40
2019-02-28T19:13:28.467Z,12.33
2019-02-28T19:15:55.546Z,11.80
2019-02-28T19:18:22.658Z,12.00
2019-02-28T19:20:49.787Z,13.07
2019-02-28T19:23:17.019Z,11.40
2019-02-28T19:25:44.703Z,12.33
2019-02-28T19:28:11.784Z,11.67
2019-02-28T19:30:38.944Z,12.13
2019-02-28T19:33:06.104Z,11.70
2019-02-28T19:35:33.207Z,13.03
2019-02-28T19:38:00.303Z,11.83
2019-02-28T19:40:27.464Z,11.77
2019-02-28T19:42:54.611Z,12.43
2019-02-28T19:45:38.584Z,11.97
2019-02-28T19:48:05.684Z,11.63
2019-02-28T19:50:32.841Z,12.70
2019-02-28T19:52:59.980Z,13.33
2019-02-28T19:55:27.191Z,11.30
2019-02-28T19:57:54.293Z,12.07
2019-02-28T20:00:21.551Z,12.03
2019-02-28T20:02:48.671Z,11.53
2019-02-28T20:05:15.950Z,12.03
2019-02-28T20:07:43.078Z,11.73
2019-02-28T20:10:16.771Z,12.63
2019-02-28T20:12:43.871Z,13.03
2019-02-28T20:15:14.209Z,12.73
2019-02-28T20:17:41.555Z,12.37
2019-02-28T20:20:15.951Z,12.57
2019-02-28T20:22:43.491Z,11.87
2019-02-28T20:25:12.511Z,11.93
2019-02-28T20:27:39.751Z,12.70
2019-02-28T20:30:16.213Z,12.87
2019-02-28T20:32:43.392Z,12.70
2019-02-28T20:35:10.529Z,12.90
2019-02-28T20:37:37.770Z,12.17
2019-02-28T20:40:15.570Z,11.90
2019-02-28T20:42:42.715Z,12.33
2019-02-28T20:45:11.633Z,12.20
2019-02-28T20:47:38.791Z,12.50
2019-02-28T20:50:35.311Z,11.90
2019-02-28T20:53:02.952Z,12.73
2019-02-28T20:55:30.055Z,12.17
2019-02-28T20:57:57.410Z,12.53
2019-02-28T21:00:26.030Z,13.30
2019-02-28T21:02:53.171Z,13.00
2019-02-28T21:05:20.208Z,13.50
2019-02-28T21:07:47.350Z,13.10
2019-02-28T21:10:14.490Z,13.00
2019-02-28T21:12:41.592Z,13.17
2019-02-28T21:15:11.250Z,12.77
2019-02-28T21:17:38.411Z,13.17
2019-02-28T21:20:12.344Z,12.83
2019-02-28T21:22:40.031Z,12.40
2019-02-28T21:25:12.852Z,13.37
2019-02-28T21:27:39.950Z,13.43
2019-02-28T21:30:22.272Z,13.50
2019-02-28T21:32:49.454Z,13.37
2019-02-28T21:35:17.390Z,14.63
2019-02-28T21:37:46.611Z,14.07
2019-02-28T21:40:39.250Z,14.00
2019-02-28T21:43:06.531Z,13.60
2019-02-28T21:45:33.912Z,14.17
2019-02-28T21:48:01.015Z,13.23
2019-02-28T21:50:28.130Z,14.47
2019-02-28T21:52:55.291Z,13.73
2019-02-28T21:55:22.431Z,14.03
2019-02-28T21:57:49.530Z,14.20
2019-02-28T22:00:30.915Z,13.37
2019-02-28T22:02:58.135Z,13.57
2019-02-28T22:05:25.630Z,13.87
2019-02-28T22:07:52.731Z,14.40
2019-02-28T22:10:19.977Z,14.03
2019-02-28T22:12:47.109Z,14.40
2019-02-28T22:15:20.280Z,14.03
2019-02-28T22:17:47.365Z,14.83
2019-02-28T22:20:15.142Z,14.17
2019-02-28T22:22:42.264Z,13.70
2019-02-28T22:25:13.018Z,14.70
2019-02-28T22:27:40.193Z,14.63
2019-02-28T22:30:14.904Z,13.80
2019-02-28T22:32:43.783Z,13.73
2019-02-28T22:35:12.702Z,13.13
2019-02-28T22:37:39.822Z,14.20
2019-02-28T22:40:07.003Z,13.80
2019-02-28T22:42:34.399Z,12.90
2019-02-28T22:45:01.504Z,13.93
2019-02-28T22:47:28.642Z,13.13
2019-02-28T22:49:55.803Z,13.77
2019-02-28T22:52:24.740Z,13.77
2019-02-28T22:54:52.184Z,14.57
2019-02-28T22:57:19.385Z,14.27
2019-02-28T22:59:46.503Z,14.67
2019-02-28T23:02:13.642Z,13.90
2019-02-28T23:04:40.783Z,14.50
2019-02-28T23:07:07.845Z,13.87
2019-02-28T23:09:34.984Z,12.47
2019-02-28T23:12:02.125Z,13.90
2019-02-28T23:14:29.272Z,13.57
2019-02-28T23:16:56.508Z,13.37
2019-02-28T23:19:23.833Z,13.50
2019-02-28T23:21:50.941Z,14.67
2019-02-28T23:24:18.000Z,13.83
2019-02-28T23:27:12.859Z,13.40
2019-02-28T23:29:45.399Z,13.40
2019-02-28T23:32:35.999Z,13.87
2019-02-28T23:35:17.121Z,13.63
2019-02-28T23:37:44.370Z,13.87
2019-02-28T23:40:11.419Z,12.50
2019-02-28T23:42:38.623Z,12.57
2019-02-28T23:45:06.899Z,13.03
2019-02-28T23:47:34.043Z,12.90
2019-02-28T23:50:01.240Z,13.87
2019-02-28T23:52:28.918Z,14.13
2019-02-28T23:54:56.039Z,13.67
2019-02-28T23:57:23.239Z,13.23
2019-02-28T23:59:50.319Z,12.37
